createdAt,value
2022-09-20T00:02:15.697Z,1.67
2022-09-20T00:04:50.586Z,1.37
2022-09-20T00:07:18.786Z,1.50
2022-09-20T00:09:53.526Z,1.40
2022-09-20T00:12:22.918Z,1.50
2022-09-20T00:14:57.840Z,1.80
2022-09-20T00:17:26.077Z,1.50
2022-09-20T00:20:00.547Z,1.60
2022-09-20T00:22:28.663Z,1.27
2022-09-20T00:25:03.569Z,1.63
2022-09-20T00:27:39.750Z,1.23
2022-09-20T00:30:17.549Z,1.67
2022-09-20T00:32:45.625Z,1.53
2022-09-20T00:35:19.677Z,1.30
2022-09-20T00:37:47.746Z,1.30
2022-09-20T00:40:26.582Z,1.50
2022-09-20T00:42:56.200Z,1.30
2022-09-20T00:45:32.589Z,1.60
2022-09-20T00:48:04.776Z,1.67
2022-09-20T00:50:44.598Z,1.40
2022-09-20T00:53:17.162Z,1.30
2022-09-20T00:55:57.578Z,1.50
2022-09-20T00:58:29.557Z,1.50
2022-09-20T01:01:06.673Z,1.70
2022-09-20T01:03:37.783Z,1.60
2022-09-20T01:06:17.616Z,1.53
2022-09-20T01:08:50.166Z,1.43
2022-09-20T01:11:24.597Z,1.40
2022-09-20T01:13:54.055Z,1.50
2022-09-20T01:16:29.634Z,1.60
2022-09-20T01:18:59.504Z,1.70
2022-09-20T01:21:34.616Z,1.23
2022-09-20T01:24:16.055Z,1.43
2022-09-20T01:27:14.653Z,1.33
2022-09-20T01:30:00.789Z,1.50
2022-09-20T01:32:43.584Z,1.60
2022-09-20T01:35:13.275Z,1.67
2022-09-20T01:38:01.598Z,1.87
2022-09-20T01:40:36.007Z,1.80
2022-09-20T01:43:21.823Z,1.67
2022-09-20T01:45:52.162Z,1.70
2022-09-20T01:48:35.605Z,1.60
2022-09-20T01:51:27.686Z,1.57
2022-09-20T01:54:28.639Z,1.60
2022-09-20T01:57:27.598Z,1.40
2022-09-20T02:00:14.656Z,1.30
2022-09-20T02:03:14.886Z,1.33
2022-09-20T02:06:13.689Z,1.60
2022-09-20T02:09:09.029Z,1.70
2022-09-20T02:12:00.643Z,1.63
2022-09-20T02:14:40.360Z,1.67
2022-09-20T02:17:20.709Z,1.40
2022-09-20T02:20:05.277Z,1.67
2022-09-20T02:22:50.715Z,1.90
2022-09-20T02:25:57.051Z,1.70
2022-09-20T02:28:45.689Z,1.50
2022-09-20T02:31:22.590Z,1.57
2022-09-20T02:34:11.665Z,1.60
2022-09-20T02:36:57.423Z,1.37
2022-09-20T02:39:39.689Z,1.40
2022-09-20T02:42:14.457Z,1.50
2022-09-20T02:45:00.683Z,1.70
2022-09-20T02:47:34.417Z,1.90
2022-09-20T02:50:22.677Z,1.77
2022-09-20T02:53:04.581Z,1.43
2022-09-20T02:55:46.681Z,1.70
2022-09-20T02:58:28.993Z,1.80
2022-09-20T03:01:11.782Z,2.03
2022-09-20T03:03:55.016Z,2.00
2022-09-20T03:06:36.671Z,1.77
2022-09-20T03:09:15.037Z,2.13
2022-09-20T03:11:56.771Z,1.73
2022-09-20T03:14:29.394Z,2.10
2022-09-20T03:17:17.686Z,1.90
2022-09-20T03:20:00.701Z,1.70
2022-09-20T03:22:42.716Z,1.70
2022-09-20T03:25:49.258Z,1.60
2022-09-20T03:28:43.740Z,1.70
2022-09-20T03:31:24.129Z,1.60
2022-09-20T03:34:10.889Z,2.10
2022-09-20T03:36:54.279Z,1.90
2022-09-20T03:39:44.749Z,1.93
2022-09-20T03:42:20.168Z,2.53
2022-09-20T03:45:24.742Z,1.90
2022-09-20T03:48:16.542Z,2.20
2022-09-20T03:51:02.714Z,2.37
2022-09-20T03:54:00.951Z,2.07
2022-09-20T03:56:59.752Z,2.53
2022-09-20T03:59:45.008Z,2.03
2022-09-20T04:02:41.996Z,2.37
2022-09-20T04:05:16.776Z,2.33
2022-09-20T04:08:07.784Z,2.37
2022-09-20T04:10:48.332Z,2.20
2022-09-20T04:13:42.787Z,2.33
2022-09-20T04:16:28.317Z,2.60
2022-09-20T04:19:10.756Z,2.60
2022-09-20T04:21:44.935Z,2.10
2022-09-20T04:24:30.776Z,2.60
2022-09-20T04:27:19.943Z,2.20
2022-09-20T04:30:02.806Z,2.27
2022-09-20T04:32:37.125Z,2.60
2022-09-20T04:35:39.789Z,2.07
2022-09-20T04:38:17.775Z,2.20
2022-09-20T04:41:12.057Z,2.40
2022-09-20T04:44:28.812Z,2.53
2022-09-20T04:47:30.036Z,2.60
2022-09-20T04:50:44.773Z,3.03
2022-09-20T04:53:39.502Z,3.27
2022-09-20T04:56:27.792Z,3.37
2022-09-20T04:59:07.003Z,3.20
2022-09-20T05:02:13.894Z,2.93
2022-09-20T05:05:18.530Z,3.20
2022-09-20T05:08:29.830Z,2.70
2022-09-20T05:11:30.411Z,2.63
2022-09-20T05:14:23.935Z,2.60
2022-09-20T05:17:09.267Z,2.13
2022-09-20T05:19:55.820Z,2.23
2022-09-20T05:22:59.132Z,2.07
2022-09-20T05:26:16.049Z,2.10
2022-09-20T05:29:02.015Z,2.00
2022-09-20T05:31:46.886Z,2.30
2022-09-20T05:34:23.769Z,1.90
2022-09-20T05:37:05.866Z,2.00
2022-09-20T05:39:40.205Z,2.03
2022-09-20T05:42:29.860Z,1.93
2022-09-20T05:45:15.076Z,1.97
2022-09-20T05:47:59.883Z,1.97
2022-09-20T05:50:47.539Z,1.80
2022-09-20T05:54:06.920Z,1.97
2022-09-20T05:56:46.358Z,1.70
2022-09-20T05:59:41.849Z,2.83
2022-09-20T06:02:22.552Z,2.17
2022-09-20T06:05:07.904Z,2.03
2022-09-20T06:08:09.763Z,2.10
2022-09-20T06:11:04.928Z,2.20
2022-09-20T06:14:03.846Z,2.27
2022-09-20T06:16:49.932Z,2.07
2022-09-20T06:19:26.764Z,1.90
2022-09-20T06:22:03.994Z,2.40
2022-09-20T06:24:38.249Z,2.43
2022-09-20T06:27:25.866Z,2.40
2022-09-20T06:30:01.347Z,2.20
2022-09-20T06:32:35.841Z,2.40
2022-09-20T06:35:05.452Z,2.10
2022-09-20T06:38:07.853Z,2.20
2022-09-20T06:41:02.042Z,2.37
2022-09-20T06:43:37.854Z,2.70
2022-09-20T06:46:07.879Z,2.60
2022-09-20T06:48:44.905Z,2.80
2022-09-20T06:51:12.980Z,2.27
2022-09-20T06:53:48.879Z,2.50
2022-09-20T06:56:20.513Z,2.77
2022-09-20T06:58:54.932Z,2.93
2022-09-20T07:01:30.190Z,3.30
2022-09-20T07:04:05.912Z,3.90
2022-09-20T07:06:34.615Z,2.90
2022-09-20T07:09:09.060Z,2.97
2022-09-20T07:11:37.413Z,2.80
2022-09-20T07:14:13.918Z,2.90
2022-09-20T07:16:43.441Z,3.20
2022-09-20T07:19:17.936Z,3.50
2022-09-20T07:21:46.031Z,3.40
2022-09-20T07:24:21.908Z,3.23
2022-09-20T07:27:04.968Z,3.50
2022-09-20T07:29:41.947Z,3.10
2022-09-20T07:32:11.518Z,2.97
2022-09-20T07:34:46.987Z,3.03
2022-09-20T07:37:15.090Z,2.90
2022-09-20T07:39:49.934Z,3.30
2022-09-20T07:42:18.024Z,3.33
2022-09-20T07:44:53.958Z,3.17
2022-09-20T07:47:25.515Z,3.27
2022-09-20T07:49:59.924Z,3.47
2022-09-20T07:52:28.063Z,2.80
2022-09-20T07:55:02.938Z,3.10
2022-09-20T07:57:30.993Z,3.20
2022-09-20T08:00:05.934Z,3.10
2022-09-20T08:02:41.940Z,3.50
2022-09-20T08:05:10.331Z,3.60
2022-09-20T08:07:45.954Z,2.93
2022-09-20T08:10:14.095Z,3.20
2022-09-20T08:15:40.394Z,3.10
2022-09-20T08:18:17.959Z,3.43
2022-09-20T08:20:46.438Z,2.87
2022-09-20T08:23:23.902Z,3.07
2022-09-20T08:26:11.974Z,3.20
2022-09-20T08:28:48.018Z,3.40
2022-09-20T08:31:19.443Z,3.07
2022-09-20T08:33:56.945Z,3.00
2022-09-20T08:36:26.585Z,2.90
2022-09-20T08:41:54.509Z,2.93
2022-09-20T08:44:35.414Z,3.00
2022-09-20T08:47:11.315Z,3.00
2022-09-20T08:49:48.068Z,2.90
2022-09-20T08:52:20.564Z,2.80
2022-09-20T08:54:54.985Z,2.63
2022-09-20T08:57:23.187Z,3.10
2022-09-20T08:59:58.027Z,3.10
2022-09-20T09:02:26.456Z,2.77
2022-09-20T09:05:03.058Z,3.00
2022-09-20T09:07:31.994Z,2.67
2022-09-20T09:10:00.672Z,3.00
2022-09-20T09:12:39.108Z,2.97
2022-09-20T09:15:29.270Z,2.80
2022-09-20T09:18:05.075Z,2.50
2022-09-20T09:20:43.359Z,2.90
2022-09-20T09:23:32.041Z,2.80
2022-09-20T09:26:20.044Z,2.83
2022-09-20T09:28:48.454Z,2.47
2022-09-20T09:31:32.034Z,2.90
2022-09-20T09:34:00.103Z,2.50
2022-09-20T09:36:36.090Z,2.50
2022-09-20T09:39:23.651Z,2.53
2022-09-20T09:41:59.052Z,2.00
2022-09-20T09:44:29.018Z,2.53
2022-09-20T09:47:05.061Z,2.33
2022-09-20T09:49:36.246Z,2.50
2022-09-20T09:52:20.054Z,2.37
2022-09-20T09:54:50.731Z,2.20
2022-09-20T09:57:47.059Z,2.20
2022-09-20T10:00:22.026Z,2.30
2022-09-20T10:03:25.059Z,2.30
2022-09-20T10:06:11.863Z,2.30
2022-09-20T10:09:01.078Z,1.83
2022-09-20T10:11:40.174Z,1.53
2022-09-20T10:14:30.234Z,1.50
2022-09-20T10:17:13.369Z,1.63
2022-09-20T10:20:03.068Z,1.50
2022-09-20T10:22:39.169Z,1.50
2022-09-20T10:25:30.125Z,1.57
2022-09-20T10:28:19.429Z,1.40
2022-09-20T10:31:08.125Z,1.10
2022-09-20T10:33:45.441Z,1.20
2022-09-20T10:36:32.076Z,1.23
2022-09-20T10:39:06.944Z,1.70
2022-09-20T10:42:10.116Z,1.87
2022-09-20T10:45:00.120Z,1.40
2022-09-20T10:47:34.828Z,1.23
2022-09-20T10:50:22.139Z,1.20
2022-09-20T10:53:09.238Z,1.13
2022-09-20T10:55:53.176Z,1.00
2022-09-20T10:59:03.797Z,1.40
2022-09-20T11:01:46.108Z,1.10
2022-09-20T11:04:39.225Z,1.20
2022-09-20T11:07:20.137Z,1.10
2022-09-20T11:09:53.275Z,1.10
2022-09-20T11:12:33.108Z,1.20
2022-09-20T11:15:07.083Z,1.20
2022-09-20T11:17:47.097Z,1.00
2022-09-20T11:20:20.771Z,1.23
2022-09-20T11:23:14.147Z,1.23
2022-09-20T11:26:06.131Z,1.23
2022-09-20T11:28:45.134Z,0.93
2022-09-20T11:31:21.167Z,1.40
2022-09-20T11:34:03.164Z,1.03
2022-09-20T11:36:38.350Z,1.13
2022-09-20T11:39:21.159Z,1.70
2022-09-20T11:41:55.164Z,1.30
2022-09-20T11:44:30.206Z,1.30
2022-09-20T11:47:05.182Z,1.13
2022-09-20T11:49:48.148Z,1.07
2022-09-20T11:52:31.073Z,1.27
2022-09-20T11:55:35.164Z,1.20
2022-09-20T11:58:06.843Z,1.30
2022-09-20T12:00:45.138Z,1.20
2022-09-20T12:03:31.565Z,1.30
2022-09-20T12:06:09.186Z,1.13
2022-09-20T12:08:39.940Z,0.80
2022-09-20T12:11:18.192Z,1.07
2022-09-20T12:13:55.571Z,1.03
2022-09-20T12:16:45.253Z,1.00
2022-09-20T12:19:15.757Z,1.20
2022-09-20T12:22:35.170Z,1.40
2022-09-20T12:25:37.374Z,1.20
2022-09-20T12:28:23.224Z,0.90
2022-09-20T12:31:38.935Z,0.97
2022-09-20T12:34:41.180Z,1.43
2022-09-20T12:37:23.907Z,1.00
2022-09-20T12:40:01.265Z,1.40
2022-09-20T12:42:31.752Z,1.30
2022-09-20T12:45:10.228Z,1.00
2022-09-20T12:47:39.234Z,1.30
2022-09-20T12:50:40.462Z,1.10
2022-09-20T12:53:14.645Z,0.97
2022-09-20T12:56:02.270Z,1.13
2022-09-20T12:58:55.476Z,1.27
2022-09-20T13:01:40.582Z,1.03
2022-09-20T13:05:01.264Z,1.30
2022-09-20T13:08:02.052Z,1.10
2022-09-20T13:10:41.255Z,1.27
2022-09-20T13:13:33.669Z,1.30
2022-09-20T13:16:13.380Z,1.60
2022-09-20T13:18:42.183Z,1.57
2022-09-20T13:21:17.228Z,1.53
2022-09-20T13:23:52.401Z,1.40
2022-09-20T13:26:34.250Z,1.67
2022-09-20T13:29:10.489Z,1.30
2022-09-20T13:31:45.292Z,1.43
2022-09-20T13:34:23.875Z,1.43
2022-09-20T13:37:01.309Z,1.40
2022-09-20T13:39:37.791Z,1.60
2022-09-20T13:42:18.275Z,3.60
2022-09-20T13:44:47.357Z,1.43
2022-09-20T13:47:30.289Z,1.33
2022-09-20T13:50:02.622Z,1.60
2022-09-20T13:52:39.285Z,1.37
2022-09-20T13:55:34.414Z,1.33
2022-09-20T13:58:12.460Z,1.50
2022-09-20T14:00:47.669Z,1.30
2022-09-20T14:03:25.263Z,3.20
2022-09-20T14:05:56.540Z,3.90
2022-09-20T14:08:34.322Z,1.23
2022-09-20T14:11:13.259Z,1.77
2022-09-20T14:13:49.307Z,2.13
2022-09-20T14:16:18.980Z,1.80
2022-09-20T14:18:55.340Z,1.20
2022-09-20T14:21:25.556Z,1.37
2022-09-20T14:24:04.300Z,1.30
2022-09-20T14:26:42.341Z,1.67
2022-09-20T14:29:35.308Z,1.30
2022-09-20T14:32:08.123Z,1.40
2022-09-20T14:34:44.324Z,1.30
2022-09-20T14:37:18.444Z,1.10
2022-09-20T14:39:57.318Z,1.70
2022-09-20T14:42:32.046Z,1.50
2022-09-20T14:45:07.293Z,1.30
2022-09-20T14:47:40.463Z,1.60
2022-09-20T14:50:31.313Z,1.43
2022-09-20T14:53:29.402Z,1.37
2022-09-20T14:56:00.101Z,1.63
2022-09-20T14:58:36.311Z,1.40
2022-09-20T15:01:15.508Z,1.43
2022-09-20T15:03:50.345Z,1.50
2022-09-20T15:06:18.749Z,1.30
2022-09-20T15:08:53.344Z,1.33
2022-09-20T15:11:21.777Z,1.40
2022-09-20T15:13:57.370Z,1.37
2022-09-20T15:16:25.624Z,1.40
2022-09-20T15:19:01.343Z,1.50
2022-09-20T15:21:30.596Z,1.30
2022-09-20T15:24:05.382Z,1.53
2022-09-20T15:26:39.831Z,1.20
2022-09-20T15:29:25.486Z,1.37
2022-09-20T15:31:54.173Z,1.60
2022-09-20T15:34:28.426Z,1.70
2022-09-20T15:36:56.597Z,1.33
2022-09-20T15:39:32.427Z,1.83
2022-09-20T15:42:00.589Z,1.10
2022-09-20T15:44:36.374Z,1.70
2022-09-20T15:47:04.575Z,1.47
2022-09-20T15:49:39.374Z,1.77
2022-09-20T15:52:07.782Z,1.50
2022-09-20T15:54:44.397Z,1.80
2022-09-20T15:57:12.701Z,1.40
2022-09-20T15:59:50.392Z,1.40
2022-09-20T16:02:21.810Z,1.57
2022-09-20T16:05:00.407Z,1.23
2022-09-20T16:07:28.869Z,1.50
2022-09-20T16:10:06.460Z,1.80
2022-09-20T16:12:34.528Z,1.53
2022-09-20T16:15:10.394Z,1.80
2022-09-20T16:17:55.907Z,1.50
2022-09-20T16:20:30.474Z,1.83
2022-09-20T16:22:58.630Z,1.53
2022-09-20T16:25:34.413Z,1.47
2022-09-20T16:28:14.170Z,1.73
2022-09-20T16:30:50.428Z,1.30
2022-09-20T16:33:19.692Z,1.70
2022-09-20T16:35:54.409Z,1.60
2022-09-20T16:38:23.027Z,1.80
2022-09-20T16:41:00.441Z,2.27
2022-09-20T16:43:28.462Z,2.20
2022-09-20T16:46:08.476Z,2.20
2022-09-20T16:48:37.372Z,2.33
2022-09-20T16:51:13.528Z,2.00
2022-09-20T16:53:41.807Z,3.40
2022-09-20T16:56:21.435Z,5.63
2022-09-20T16:58:50.154Z,3.87
2022-09-20T17:01:26.481Z,2.90
2022-09-20T17:03:57.873Z,2.00
2022-09-20T17:06:33.486Z,1.77
2022-09-20T17:09:02.243Z,1.60
2022-09-20T17:11:38.464Z,1.90
2022-09-20T17:14:07.440Z,1.67
2022-09-20T17:16:45.473Z,2.20
2022-09-20T17:19:15.959Z,2.90
2022-09-20T17:21:55.477Z,2.30
2022-09-20T17:24:24.907Z,2.20
2022-09-20T17:27:00.475Z,2.07
2022-09-20T17:29:35.355Z,2.10
2022-09-20T17:32:11.526Z,2.50
2022-09-20T17:34:39.788Z,2.20
2022-09-20T17:37:14.500Z,2.53
2022-09-20T17:39:42.566Z,2.53
2022-09-20T17:42:17.466Z,2.60
2022-09-20T17:44:45.611Z,2.20
2022-09-20T17:47:21.503Z,2.40
2022-09-20T17:49:49.633Z,3.07
2022-09-20T17:52:24.523Z,3.60
2022-09-20T17:54:52.593Z,3.80
2022-09-20T17:57:27.509Z,2.83
2022-09-20T17:59:59.168Z,4.33
2022-09-20T18:02:35.608Z,3.50
2022-09-20T18:05:04.212Z,3.30
2022-09-20T18:07:40.548Z,3.40
2022-09-20T18:10:11.300Z,6.63
2022-09-20T18:12:45.552Z,17.07
2022-09-20T18:15:13.691Z,15.17
2022-09-20T18:17:54.328Z,11.10
2022-09-20T18:20:22.658Z,11.13
2022-09-20T18:22:57.548Z,10.60
2022-09-20T18:25:28.373Z,9.90
2022-09-20T18:28:10.743Z,8.60
2022-09-20T18:30:40.176Z,6.40
2022-09-20T18:33:17.588Z,5.30
2022-09-20T18:35:46.150Z,5.40
2022-09-20T18:38:23.589Z,5.10
2022-09-20T18:40:57.705Z,3.70
2022-09-20T18:43:32.625Z,2.57
2022-09-20T18:46:01.160Z,2.50
2022-09-20T18:48:40.609Z,2.43
2022-09-20T18:51:10.036Z,2.10
2022-09-20T18:53:45.555Z,2.33
2022-09-20T18:56:22.595Z,2.37
2022-09-20T18:58:58.600Z,2.03
2022-09-20T19:01:56.507Z,2.40
2022-09-20T19:04:42.665Z,2.50
2022-09-20T19:07:22.627Z,3.43
2022-09-20T19:10:02.739Z,2.60
2022-09-20T19:12:40.236Z,2.70
2022-09-20T19:15:31.565Z,2.60
2022-09-20T19:18:11.722Z,2.30
2022-09-20T19:20:53.665Z,2.30
2022-09-20T19:23:40.203Z,2.63
2022-09-20T19:26:21.785Z,2.67
2022-09-20T19:29:05.619Z,3.07
2022-09-20T19:31:34.992Z,3.10
2022-09-20T19:34:17.616Z,3.20
2022-09-20T19:36:59.991Z,2.80
2022-09-20T19:39:44.677Z,2.30
2022-09-20T19:42:20.355Z,2.57
2022-09-20T19:45:04.621Z,2.27
2022-09-20T19:47:46.578Z,2.10
2022-09-20T19:50:30.642Z,2.00
2022-09-20T19:53:02.411Z,2.33
2022-09-20T19:55:37.600Z,2.70
2022-09-20T19:58:06.546Z,2.33
2022-09-20T20:00:41.666Z,2.87
2022-09-20T20:03:12.657Z,2.93
2022-09-20T20:05:50.686Z,3.17
2022-09-20T20:08:32.915Z,3.97
2022-09-20T20:11:14.612Z,3.70
2022-09-20T20:14:03.986Z,3.43
2022-09-20T20:16:47.627Z,3.17
2022-09-20T20:19:37.201Z,3.20
2022-09-20T20:22:20.706Z,3.13
2022-09-20T20:24:54.361Z,3.17
2022-09-20T20:27:29.669Z,3.60
2022-09-20T20:29:58.076Z,3.40
2022-09-20T20:32:37.765Z,3.50
2022-09-20T20:35:12.000Z,4.03
2022-09-20T20:37:46.850Z,3.80
2022-09-20T20:40:16.630Z,4.13
2022-09-20T20:42:51.709Z,3.90
2022-09-20T20:45:21.380Z,4.07
2022-09-20T20:47:49.550Z,4.07
2022-09-20T20:50:24.652Z,4.37
2022-09-20T20:52:54.230Z,4.20
2022-09-20T20:55:30.670Z,4.40
2022-09-20T20:57:59.617Z,4.33
2022-09-20T21:00:35.747Z,3.67
2022-09-20T21:03:07.549Z,4.33
2022-09-20T21:05:44.694Z,4.30
2022-09-20T21:08:17.599Z,4.43
2022-09-20T21:10:53.694Z,4.40
2022-09-20T21:13:22.239Z,4.30
2022-09-20T21:15:56.723Z,4.23
2022-09-20T21:18:24.814Z,4.07
2022-09-20T21:20:59.689Z,3.83
2022-09-20T21:23:27.931Z,3.83
2022-09-20T21:26:28.714Z,4.53
2022-09-20T21:29:05.075Z,4.30
2022-09-20T21:31:44.723Z,4.20
2022-09-20T21:34:15.412Z,3.70
2022-09-20T21:36:51.729Z,3.83
2022-09-20T21:39:19.851Z,3.60
2022-09-20T21:41:55.726Z,3.80
2022-09-20T21:44:23.819Z,3.57
2022-09-20T21:46:58.848Z,4.30
2022-09-20T21:49:26.914Z,3.67
2022-09-20T21:52:01.732Z,3.60
2022-09-20T21:54:29.886Z,3.83
2022-09-20T21:57:05.728Z,4.37
2022-09-20T21:59:33.865Z,3.47
2022-09-20T22:02:08.748Z,3.40
2022-09-20T22:04:37.282Z,3.80
2022-09-20T22:07:11.726Z,3.63
2022-09-20T22:09:42.816Z,3.90
2022-09-20T22:12:18.738Z,3.60
2022-09-20T22:14:46.978Z,4.07
2022-09-20T22:17:21.774Z,3.90
2022-09-20T22:19:50.026Z,3.87
2022-09-20T22:22:24.768Z,4.10
2022-09-20T22:24:53.275Z,3.57
2022-09-20T22:27:32.645Z,3.93
2022-09-20T22:30:04.929Z,4.20
2022-09-20T22:32:39.794Z,4.30
2022-09-20T22:35:08.752Z,4.10
2022-09-20T22:37:43.780Z,4.20
2022-09-20T22:40:12.470Z,4.10
2022-09-20T22:42:48.812Z,3.97
2022-09-20T22:45:17.257Z,3.97
2022-09-20T22:47:52.773Z,4.07
2022-09-20T22:50:21.162Z,4.30
2022-09-20T22:52:55.804Z,4.30
2022-09-20T22:55:27.454Z,4.27
2022-09-20T22:58:03.840Z,4.47
2022-09-20T23:00:32.264Z,4.70
2022-09-20T23:03:07.874Z,4.53
2022-09-20T23:05:36.675Z,5.00
2022-09-20T23:08:11.812Z,4.50
2022-09-20T23:10:40.224Z,4.87
2022-09-20T23:13:16.817Z,4.80
2022-09-20T23:15:45.146Z,4.70
2022-09-20T23:18:19.827Z,4.83
2022-09-20T23:20:50.224Z,4.73
2022-09-20T23:23:29.810Z,4.90
2022-09-20T23:26:10.951Z,4.93
2022-09-20T23:28:50.855Z,5.53
2022-09-20T23:31:26.795Z,4.90
2022-09-20T23:34:03.820Z,4.90
2022-09-20T23:36:33.939Z,4.93
2022-09-20T23:39:08.832Z,4.80
2022-09-20T23:41:37.916Z,5.30
2022-09-20T23:44:16.985Z,5.03
2022-09-20T23:46:45.339Z,5.10
2022-09-20T23:49:20.042Z,5.30
2022-09-20T23:51:48.366Z,5.10
2022-09-20T23:54:24.968Z,4.97
2022-09-20T23:56:53.297Z,5.33
2022-09-20T23:59:29.873Z,4.60
